createdAt,value
2018-03-30T00:02:01.396Z,80.40
2018-03-30T00:04:29.575Z,80.60
2018-03-30T00:06:57.706Z,81.30
2018-03-30T00:09:43.644Z,81.70
2018-03-30T00:12:11.769Z,81.40
2018-03-30T00:14:39.902Z,80.30
2018-03-30T00:17:08.051Z,81.00
2018-03-30T00:19:36.182Z,81.10
2018-03-30T00:22:04.359Z,80.30
2018-03-30T00:24:32.479Z,79.80
2018-03-30T00:27:00.638Z,79.70
2018-03-30T00:29:28.842Z,78.90
2018-03-30T00:31:56.995Z,78.10
2018-03-30T00:34:25.159Z,78.30
2018-03-30T00:36:53.293Z,78.80
2018-03-30T00:39:21.424Z,78.20
2018-03-30T00:41:49.573Z,78.50
2018-03-30T00:44:17.700Z,77.90
2018-03-30T00:46:45.832Z,77.90
2018-03-30T00:49:13.999Z,76.70
2018-03-30T00:51:42.132Z,76.80
2018-03-30T00:54:10.284Z,76.20
2018-03-30T00:56:38.428Z,75.00
2018-03-30T00:59:06.560Z,75.00
2018-03-30T01:01:35.492Z,74.00
2018-03-30T01:04:03.632Z,74.10
2018-03-30T01:06:32.555Z,74.50
2018-03-30T01:09:00.693Z,74.50
2018-03-30T01:11:29.583Z,75.60
2018-03-30T01:13:58.504Z,76.00
2018-03-30T01:16:27.269Z,76.00
2018-03-30T01:18:55.440Z,76.10
2018-03-30T01:21:24.355Z,75.00
2018-03-30T01:23:52.526Z,75.00
2018-03-30T01:26:20.658Z,75.90
2018-03-30T01:28:49.575Z,75.70
2018-03-30T01:31:17.716Z,75.60
2018-03-30T01:33:45.886Z,75.90
2018-03-30T01:36:14.096Z,76.70
2018-03-30T01:38:42.269Z,77.30
2018-03-30T01:41:10.407Z,78.20
2018-03-30T01:43:39.308Z,78.60
2018-03-30T01:46:08.247Z,79.40
2018-03-30T01:48:36.448Z,79.50
2018-03-30T01:51:04.594Z,79.40
2018-03-30T01:53:32.750Z,79.70
2018-03-30T01:56:00.887Z,80.90
2018-03-30T01:58:29.806Z,83.50
2018-03-30T02:00:57.948Z,83.40
2018-03-30T02:03:26.873Z,83.40
2018-03-30T02:05:55.013Z,83.50
2018-03-30T02:08:23.207Z,83.40
2018-03-30T02:10:51.334Z,83.30
2018-03-30T02:13:19.456Z,83.90
2018-03-30T02:15:47.608Z,84.20
2018-03-30T02:18:17.122Z,85.70
2018-03-30T02:20:45.289Z,85.70
2018-03-30T02:23:14.207Z,87.00
2018-03-30T02:25:42.332Z,87.10
2018-03-30T02:28:10.496Z,87.30
2018-03-30T02:30:38.622Z,87.40
2018-03-30T02:33:06.755Z,87.60
2018-03-30T02:35:35.689Z,87.70
2018-03-30T02:38:03.805Z,87.70
2018-03-30T02:40:31.967Z,87.60
2018-03-30T02:43:00.255Z,88.30
2018-03-30T02:45:28.406Z,88.10
2018-03-30T02:47:56.538Z,89.30
2018-03-30T02:50:24.673Z,88.90
2018-03-30T02:52:53.490Z,88.90
2018-03-30T02:55:21.628Z,89.20
2018-03-30T02:57:50.401Z,87.70
2018-03-30T03:00:18.531Z,87.80
2018-03-30T03:02:46.658Z,87.20
2018-03-30T03:05:14.808Z,86.40
2018-03-30T03:07:42.951Z,85.50
2018-03-30T03:10:11.087Z,85.30
2018-03-30T03:12:40.017Z,86.50
2018-03-30T03:15:08.159Z,86.40
2018-03-30T03:17:37.052Z,84.90
2018-03-30T03:20:06.180Z,84.40
2018-03-30T03:22:34.352Z,84.40
2018-03-30T03:25:02.503Z,83.00
2018-03-30T03:27:30.745Z,82.80
2018-03-30T03:29:58.902Z,82.80
2018-03-30T03:32:27.038Z,85.20
2018-03-30T03:34:55.183Z,85.50
2018-03-30T03:37:24.096Z,86.10
2018-03-30T03:39:52.242Z,86.10
2018-03-30T03:42:22.414Z,84.50
2018-03-30T03:44:50.567Z,84.40
2018-03-30T03:47:18.947Z,84.20
2018-03-30T03:49:47.100Z,84.60
2018-03-30T03:52:15.231Z,85.30
2018-03-30T03:54:43.350Z,85.30
2018-03-30T03:57:11.491Z,85.10
2018-03-30T03:59:40.392Z,84.90
2018-03-30T04:02:09.288Z,84.90
2018-03-30T04:04:38.627Z,84.40
2018-03-30T04:07:06.759Z,84.40
2018-03-30T04:09:35.653Z,82.80
2018-03-30T04:12:03.849Z,82.80
2018-03-30T04:14:32.043Z,82.70
2018-03-30T04:17:00.194Z,82.70
2018-03-30T04:19:28.324Z,82.70
2018-03-30T04:21:57.928Z,82.30
2018-03-30T04:24:26.857Z,82.60
2018-03-30T04:26:55.023Z,82.60
2018-03-30T04:29:23.158Z,82.50
2018-03-30T04:31:51.311Z,82.60
2018-03-30T04:34:19.451Z,82.10
2018-03-30T04:36:47.588Z,82.50
2018-03-30T04:39:16.511Z,82.40
2018-03-30T04:41:44.648Z,82.30
2018-03-30T04:44:13.568Z,83.00
2018-03-30T04:46:41.683Z,83.00
2018-03-30T04:49:09.827Z,84.20
2018-03-30T04:51:37.992Z,83.00
2018-03-30T04:54:06.123Z,84.20
2018-03-30T04:56:35.050Z,86.40
2018-03-30T04:59:03.195Z,86.40
2018-03-30T05:01:32.595Z,87.60
2018-03-30T05:04:01.532Z,87.90
2018-03-30T05:06:29.692Z,88.00
2018-03-30T05:08:57.819Z,88.90
2018-03-30T05:11:26.932Z,87.10
2018-03-30T05:13:55.828Z,85.70
2018-03-30T05:16:23.999Z,85.80
2018-03-30T05:18:52.126Z,84.80
2018-03-30T05:21:20.248Z,83.80
2018-03-30T05:23:48.397Z,82.90
2018-03-30T05:26:17.305Z,81.60
2018-03-30T05:28:45.467Z,81.50
2018-03-30T05:31:14.387Z,82.40
2018-03-30T05:33:42.512Z,82.50
2018-03-30T05:36:11.101Z,82.80
2018-03-30T05:38:39.252Z,82.80
2018-03-30T05:41:07.395Z,82.20
2018-03-30T05:43:35.926Z,81.40
2018-03-30T05:46:04.087Z,79.90
2018-03-30T05:48:32.207Z,78.80
2018-03-30T05:51:00.391Z,78.10
2018-03-30T05:53:28.558Z,76.80
2018-03-30T05:55:56.677Z,76.00
2018-03-30T05:58:24.836Z,75.60
2018-03-30T06:00:52.956Z,75.10
2018-03-30T06:03:21.092Z,74.60
2018-03-30T06:05:49.255Z,74.10
2018-03-30T06:08:17.399Z,73.70
2018-03-30T06:10:45.545Z,73.00
2018-03-30T06:13:13.742Z,72.40
2018-03-30T06:15:41.891Z,71.90
2018-03-30T06:18:10.044Z,71.50
2018-03-30T06:20:38.930Z,70.60
2018-03-30T06:23:07.067Z,70.60
2018-03-30T06:25:35.203Z,70.10
2018-03-30T06:28:03.371Z,68.60
2018-03-30T06:30:31.504Z,66.80
2018-03-30T06:32:59.631Z,64.80
2018-03-30T06:35:27.825Z,63.40
2018-03-30T06:37:56.087Z,63.50
2018-03-30T06:40:24.247Z,60.90
2018-03-30T06:42:52.377Z,59.00
2018-03-30T06:45:20.520Z,56.50
2018-03-30T06:47:48.651Z,55.00
2018-03-30T06:50:16.795Z,55.00
2018-03-30T06:52:44.949Z,54.80
2018-03-30T06:55:13.084Z,53.80
2018-03-30T06:57:41.269Z,54.60
2018-03-30T07:00:09.403Z,55.30
2018-03-30T07:02:38.324Z,53.00
2018-03-30T07:05:06.471Z,53.00
2018-03-30T07:07:34.641Z,52.10
2018-03-30T07:10:02.783Z,51.40
2018-03-30T07:12:30.952Z,50.70
2018-03-30T07:14:59.089Z,51.20
2018-03-30T07:17:27.263Z,49.60
2018-03-30T07:19:55.403Z,51.10
2018-03-30T07:22:23.601Z,50.00
2018-03-30T07:24:52.407Z,50.20
2018-03-30T07:27:20.585Z,49.50
2018-03-30T07:29:48.752Z,48.30
2018-03-30T07:32:17.056Z,47.80
2018-03-30T07:34:45.199Z,46.70
2018-03-30T07:37:13.368Z,43.90
2018-03-30T07:39:41.503Z,43.80
2018-03-30T07:42:09.650Z,41.30
2018-03-30T07:44:38.578Z,44.90
2018-03-30T07:47:06.761Z,43.90
2018-03-30T07:49:34.892Z,45.00
2018-03-30T07:52:03.840Z,41.50
2018-03-30T07:54:31.995Z,41.50
2018-03-30T07:57:00.153Z,39.30
2018-03-30T07:59:28.306Z,39.40
2018-03-30T08:01:57.207Z,39.40
2018-03-30T08:04:26.146Z,40.80
2018-03-30T08:06:54.280Z,40.80
2018-03-30T08:09:22.415Z,40.60
2018-03-30T08:11:50.583Z,40.00
2018-03-30T08:14:18.716Z,39.70
2018-03-30T08:16:46.847Z,40.10
2018-03-30T08:19:15.792Z,37.80
2018-03-30T08:21:43.955Z,37.70
2018-03-30T08:24:12.459Z,37.70
2018-03-30T08:26:40.684Z,36.70
2018-03-30T08:29:08.879Z,36.50
2018-03-30T08:31:37.054Z,38.20
2018-03-30T08:34:05.195Z,36.60
2018-03-30T08:36:33.419Z,36.20
2018-03-30T08:39:02.266Z,36.00
2018-03-30T08:41:30.428Z,36.90
2018-03-30T08:43:59.457Z,37.70
2018-03-30T08:46:27.607Z,37.50
2018-03-30T08:48:55.799Z,41.00
2018-03-30T08:51:23.948Z,38.80
2018-03-30T08:53:52.088Z,37.30
2018-03-30T08:56:20.411Z,36.40
2018-03-30T08:58:48.540Z,37.40
2018-03-30T09:01:16.683Z,37.30
2018-03-30T09:03:44.972Z,37.10
2018-03-30T09:06:13.111Z,36.00
2018-03-30T09:08:41.264Z,35.10
2018-03-30T09:11:10.222Z,34.60
2018-03-30T09:13:38.359Z,34.00
2018-03-30T09:16:06.504Z,34.30
2018-03-30T09:18:34.657Z,34.30
2018-03-30T09:21:02.791Z,35.70
2018-03-30T09:23:30.952Z,33.50
2018-03-30T09:25:59.129Z,33.70
2018-03-30T09:28:27.272Z,34.40
2018-03-30T09:30:55.415Z,33.20
2018-03-30T09:33:28.564Z,35.00
2018-03-30T09:35:57.208Z,35.00
2018-03-30T09:38:25.339Z,34.80
2018-03-30T09:40:53.496Z,34.20
2018-03-30T09:43:21.624Z,33.10
2018-03-30T09:45:49.760Z,33.50
2018-03-30T09:48:17.917Z,33.30
2018-03-30T09:50:46.059Z,31.70
2018-03-30T09:53:14.235Z,30.60
2018-03-30T09:55:42.373Z,30.80
2018-03-30T09:58:11.475Z,28.00
2018-03-30T10:00:44.251Z,28.50
2018-03-30T10:03:12.435Z,28.50
2018-03-30T10:05:40.580Z,28.90
2018-03-30T10:08:09.491Z,27.40
2018-03-30T10:10:38.416Z,27.00
2018-03-30T10:13:06.671Z,27.00
2018-03-30T10:15:34.906Z,26.90
2018-03-30T10:18:03.145Z,26.70
2018-03-30T10:20:31.299Z,26.50
2018-03-30T10:22:59.535Z,26.80
2018-03-30T10:25:27.806Z,27.20
2018-03-30T10:27:55.956Z,25.30
2018-03-30T10:30:25.135Z,27.00
2018-03-30T10:32:53.316Z,26.70
2018-03-30T10:35:22.556Z,25.80
2018-03-30T10:37:51.501Z,26.50
2018-03-30T10:40:20.848Z,26.50
2018-03-30T10:42:49.754Z,25.00
2018-03-30T10:45:19.729Z,25.00
2018-03-30T10:47:47.997Z,25.30
2018-03-30T10:50:16.131Z,24.50
2018-03-30T10:52:45.289Z,23.90
2018-03-30T10:55:14.202Z,23.10
2018-03-30T10:57:42.336Z,23.00
2018-03-30T11:00:10.513Z,23.80
2018-03-30T11:02:39.437Z,23.10
2018-03-30T11:05:07.594Z,23.10
2018-03-30T11:07:36.636Z,21.70
2018-03-30T11:10:04.799Z,21.70
2018-03-30T11:12:32.936Z,20.40
2018-03-30T11:15:01.148Z,21.90
2018-03-30T11:17:29.281Z,20.60
2018-03-30T11:19:58.626Z,19.70
2018-03-30T11:22:26.765Z,19.80
2018-03-30T11:24:54.903Z,19.30
2018-03-30T11:27:23.048Z,18.80
2018-03-30T11:29:51.194Z,18.90
2018-03-30T11:32:19.352Z,17.80
2018-03-30T11:34:47.508Z,18.20
2018-03-30T11:37:16.467Z,18.60
2018-03-30T11:39:44.914Z,18.70
2018-03-30T11:42:13.146Z,17.30
2018-03-30T11:44:41.390Z,17.00
2018-03-30T11:47:10.144Z,16.20
2018-03-30T11:49:38.948Z,15.70
2018-03-30T11:52:09.192Z,15.40
2018-03-30T11:54:37.966Z,14.90
2018-03-30T11:57:06.947Z,13.20
2018-03-30T11:59:35.115Z,13.10
2018-03-30T12:02:03.260Z,11.40
2018-03-30T12:04:32.247Z,10.90
2018-03-30T12:07:01.162Z,10.60
2018-03-30T12:09:29.667Z,10.60
2018-03-30T12:11:58.228Z,10.40
2018-03-30T12:14:26.399Z,9.50
2018-03-30T12:16:54.550Z,10.00
2018-03-30T12:19:23.465Z,8.90
2018-03-30T12:21:51.611Z,8.90
2018-03-30T12:24:20.548Z,8.20
2018-03-30T12:26:48.707Z,8.20
2018-03-30T12:29:16.828Z,7.50
2018-03-30T12:31:45.000Z,6.10
2018-03-30T12:34:13.147Z,5.10
2018-03-30T12:36:41.301Z,6.50
2018-03-30T12:39:09.643Z,5.10
2018-03-30T12:41:38.535Z,4.10
2018-03-30T12:44:06.703Z,4.00
2018-03-30T12:46:35.619Z,3.70
2018-03-30T12:49:03.751Z,3.60
2018-03-30T12:51:32.675Z,3.00
2018-03-30T12:54:00.813Z,3.00
2018-03-30T12:56:29.752Z,1.90
2018-03-30T12:58:58.023Z,1.00
2018-03-30T13:01:26.187Z,1.00
2018-03-30T13:03:54.429Z,1.10
2018-03-30T13:06:23.444Z,1.00
2018-03-30T13:08:51.599Z,1.00
2018-03-30T13:11:20.526Z,1.00
2018-03-30T13:13:48.662Z,1.00
2018-03-30T13:16:17.733Z,1.00
2018-03-30T13:18:45.956Z,1.00
2018-03-30T13:21:14.152Z,1.00
2018-03-30T13:23:42.284Z,1.00
2018-03-30T13:26:11.169Z,1.00
2018-03-30T13:28:40.073Z,1.00
2018-03-30T13:31:08.489Z,1.00
2018-03-30T13:33:37.129Z,1.00
2018-03-30T13:36:05.274Z,1.00
2018-03-30T13:38:33.502Z,1.00
2018-03-30T13:41:01.631Z,1.00
2018-03-30T13:43:30.539Z,1.00
2018-03-30T13:45:58.696Z,1.00
2018-03-30T13:48:27.612Z,1.00
2018-03-30T13:51:06.793Z,1.00
2018-03-30T13:53:39.700Z,1.00
2018-03-30T13:59:09.970Z,1.00
2018-03-30T14:01:41.218Z,1.00
2018-03-30T14:04:15.604Z,1.00
2018-03-30T14:06:52.951Z,1.00
2018-03-30T14:09:29.393Z,1.00
2018-03-30T14:14:55.011Z,1.00
2018-03-30T14:17:30.867Z,1.00
2018-03-30T14:20:11.303Z,1.00
2018-03-30T14:22:55.871Z,1.00
2018-03-30T14:25:31.301Z,1.00
2018-03-30T14:28:09.687Z,1.00
2018-03-30T14:30:44.416Z,1.00
2018-03-30T14:33:16.347Z,1.00
2018-03-30T14:36:08.945Z,1.00
2018-03-30T14:38:45.675Z,1.00
2018-03-30T14:41:20.803Z,1.00
2018-03-30T14:43:52.554Z,1.00
2018-03-30T14:46:41.851Z,1.00
2018-03-30T14:49:15.627Z,1.00
2018-03-30T14:51:47.039Z,1.00
2018-03-30T14:54:31.639Z,1.00
2018-03-30T14:57:22.302Z,1.00
2018-03-30T14:59:55.633Z,1.00
2018-03-30T15:02:31.288Z,1.00
2018-03-30T15:05:23.076Z,1.00
2018-03-30T15:08:04.321Z,1.00
2018-03-30T15:13:32.766Z,1.00
2018-03-30T15:19:13.834Z,1.60
2018-03-30T15:21:47.495Z,1.40
2018-03-30T15:24:19.521Z,1.30
2018-03-30T15:26:53.276Z,1.00
2018-03-30T15:29:21.403Z,1.00
2018-03-30T15:35:08.911Z,1.00
2018-03-30T15:37:37.115Z,1.00
2018-03-30T15:40:11.859Z,1.90
2018-03-30T15:42:48.312Z,1.70
2018-03-30T15:45:25.786Z,1.50
2018-03-30T15:47:54.695Z,2.30
2018-03-30T15:50:22.836Z,2.30
2018-03-30T15:52:51.943Z,3.10
2018-03-30T15:55:20.860Z,3.50
2018-03-30T15:57:49.022Z,3.50
2018-03-30T16:00:18.102Z,3.70
2018-03-30T16:02:47.023Z,5.70
2018-03-30T16:05:15.190Z,5.70
2018-03-30T16:07:43.336Z,7.00
2018-03-30T16:10:18.259Z,8.10
2018-03-30T16:12:47.996Z,8.00
2018-03-30T16:15:16.243Z,8.00
2018-03-30T16:17:45.178Z,8.10
2018-03-30T16:20:12.565Z,8.00
2018-03-30T16:22:39.979Z,8.30
2018-03-30T16:25:07.386Z,8.80
2018-03-30T16:27:34.890Z,9.20
2018-03-30T16:30:02.277Z,9.90
2018-03-30T16:32:29.684Z,10.60
2018-03-30T16:34:57.091Z,11.40
2018-03-30T16:37:24.649Z,12.10
2018-03-30T16:39:52.857Z,13.70
2018-03-30T16:42:21.057Z,14.50
2018-03-30T16:44:48.524Z,14.40
2018-03-30T16:47:15.912Z,15.10
2018-03-30T16:49:43.796Z,15.70
2018-03-30T16:52:11.954Z,16.80
2018-03-30T16:54:39.351Z,16.80
2018-03-30T16:57:06.752Z,17.30
2018-03-30T16:59:34.471Z,17.60
2018-03-30T17:02:02.018Z,18.20
2018-03-30T17:04:29.443Z,19.00
2018-03-30T17:06:56.852Z,19.90
2018-03-30T17:09:24.242Z,19.70
2018-03-30T17:11:51.803Z,19.50
2018-03-30T17:14:19.293Z,20.80
2018-03-30T17:16:47.505Z,21.30
2018-03-30T17:19:14.901Z,21.30
2018-03-30T17:21:42.316Z,21.50
2018-03-30T17:24:09.735Z,22.50
2018-03-30T17:26:37.125Z,22.60
2018-03-30T17:29:04.531Z,23.00
2018-03-30T17:31:32.915Z,24.20
2018-03-30T17:34:01.473Z,25.20
2018-03-30T17:36:28.982Z,25.10
2018-03-30T17:38:56.382Z,26.00
2018-03-30T17:41:23.775Z,28.10
2018-03-30T17:43:51.377Z,27.40
2018-03-30T17:46:18.794Z,28.30
2018-03-30T17:48:46.196Z,27.90
2018-03-30T17:51:13.614Z,29.00
2018-03-30T17:53:41.024Z,28.90
2018-03-30T17:56:09.214Z,29.60
2018-03-30T17:58:57.309Z,29.60
2018-03-30T18:01:24.699Z,31.00
2018-03-30T18:03:52.093Z,32.30
2018-03-30T18:06:20.264Z,32.90
2018-03-30T18:08:48.489Z,33.10
2018-03-30T18:11:15.871Z,33.10
2018-03-30T18:13:43.256Z,32.70
2018-03-30T18:16:11.453Z,32.20
2018-03-30T18:18:38.855Z,32.10
2018-03-30T18:21:06.265Z,31.80
2018-03-30T18:23:33.671Z,32.00
2018-03-30T18:26:01.060Z,32.20
2018-03-30T18:28:28.451Z,32.30
2018-03-30T18:30:55.873Z,32.60
2018-03-30T18:33:23.343Z,33.20
2018-03-30T18:35:50.776Z,33.40
2018-03-30T18:38:18.161Z,33.90
2018-03-30T18:40:45.548Z,34.10
2018-03-30T18:43:12.950Z,35.00
2018-03-30T18:45:40.377Z,35.30
2018-03-30T18:48:09.670Z,35.70
2018-03-30T18:50:37.841Z,37.10
2018-03-30T18:53:15.651Z,37.10
2018-03-30T18:55:43.804Z,38.80
2018-03-30T18:58:11.198Z,38.70
2018-03-30T19:00:38.596Z,38.70
2018-03-30T19:03:05.970Z,38.70
2018-03-30T19:05:33.376Z,38.70
2018-03-30T19:08:00.751Z,38.60
2018-03-30T19:10:28.188Z,39.00
2018-03-30T19:12:55.573Z,39.70
2018-03-30T19:15:22.973Z,40.10
2018-03-30T19:17:51.143Z,41.00
2018-03-30T19:20:19.345Z,41.20
2018-03-30T19:22:46.742Z,41.20
2018-03-30T19:25:14.152Z,41.10
2018-03-30T19:27:41.587Z,41.40
2018-03-30T19:30:09.753Z,41.80
2018-03-30T19:32:37.908Z,41.90
2018-03-30T19:35:05.417Z,41.80
2018-03-30T19:37:32.813Z,42.10
2018-03-30T19:40:00.208Z,42.30
2018-03-30T19:42:27.588Z,42.40
2018-03-30T19:44:54.978Z,42.50
2018-03-30T19:47:22.355Z,42.70
2018-03-30T19:49:50.550Z,43.00
2018-03-30T19:52:17.930Z,43.00
2018-03-30T19:54:45.311Z,43.00
2018-03-30T19:57:12.712Z,43.20
2018-03-30T19:59:40.168Z,43.40
2018-03-30T20:02:07.567Z,44.60
2018-03-30T20:04:34.984Z,43.20
2018-03-30T20:07:02.391Z,43.40
2018-03-30T20:09:29.790Z,43.30
2018-03-30T20:11:57.179Z,43.30
2018-03-30T20:14:24.591Z,43.30
2018-03-30T20:16:51.983Z,43.50
2018-03-30T20:19:19.365Z,43.10
2018-03-30T20:21:46.766Z,43.20
2018-03-30T20:24:14.163Z,43.20
2018-03-30T20:26:41.559Z,43.30
2018-03-30T20:29:09.714Z,43.00
2018-03-30T20:31:37.112Z,43.00
2018-03-30T20:34:05.016Z,42.80
2018-03-30T20:36:32.422Z,42.70
2018-03-30T20:38:59.798Z,42.40
2018-03-30T20:41:27.203Z,42.20
2018-03-30T20:43:55.380Z,42.30
2018-03-30T20:46:23.553Z,42.20
2018-03-30T20:48:51.695Z,42.10
2018-03-30T20:51:19.080Z,42.00
2018-03-30T20:53:47.256Z,42.00
2018-03-30T20:56:15.407Z,42.00
2018-03-30T20:58:42.813Z,42.00
2018-03-30T21:01:10.235Z,41.60
2018-03-30T21:03:38.445Z,41.70
2018-03-30T21:06:05.839Z,41.70
2018-03-30T21:08:33.259Z,41.90
2018-03-30T21:11:01.383Z,41.60
2018-03-30T21:13:28.888Z,41.70
2018-03-30T21:15:56.334Z,41.90
2018-03-30T21:18:23.711Z,41.70
2018-03-30T21:20:51.095Z,41.80
2018-03-30T21:23:18.594Z,41.90
2018-03-30T21:25:46.040Z,41.90
2018-03-30T21:28:13.443Z,41.80
2018-03-30T21:30:40.920Z,42.10
2018-03-30T21:33:08.420Z,42.30
2018-03-30T21:35:35.799Z,42.60
2018-03-30T21:38:03.189Z,42.90
2018-03-30T21:40:30.600Z,42.90
2018-03-30T21:42:58.011Z,43.00
2018-03-30T21:45:26.182Z,43.80
2018-03-30T21:47:54.319Z,43.90
2018-03-30T21:50:21.715Z,43.90
2018-03-30T21:52:49.886Z,44.20
2018-03-30T21:55:18.106Z,44.30
2018-03-30T21:57:45.544Z,44.30
2018-03-30T22:00:12.956Z,44.60
2018-03-30T22:02:40.432Z,44.80
2018-03-30T22:05:07.787Z,45.10
2018-03-30T22:07:35.931Z,45.90
2018-03-30T22:10:03.343Z,45.80
2018-03-30T22:12:31.222Z,45.90
2018-03-30T22:14:58.663Z,46.10
2018-03-30T22:17:26.053Z,46.40
2018-03-30T22:19:53.480Z,46.40
2018-03-30T22:22:20.886Z,47.10
2018-03-30T22:24:48.261Z,47.40
2018-03-30T22:27:16.409Z,48.00
2018-03-30T22:29:43.825Z,48.00
2018-03-30T22:32:11.220Z,49.50
2018-03-30T22:34:38.591Z,48.60
2018-03-30T22:37:06.784Z,49.00
2018-03-30T22:39:34.159Z,48.90
2018-03-30T22:42:01.547Z,49.50
2018-03-30T22:44:28.960Z,49.80
2018-03-30T22:46:56.403Z,49.80
2018-03-30T22:49:23.790Z,49.80
2018-03-30T22:51:51.187Z,49.80
2018-03-30T22:54:19.390Z,49.70
2018-03-30T22:56:46.772Z,49.70
2018-03-30T22:59:14.167Z,50.20
2018-03-30T23:01:42.303Z,50.60
2018-03-30T23:04:09.720Z,50.60
2018-03-30T23:06:37.101Z,51.30
2018-03-30T23:09:04.498Z,51.80
2018-03-30T23:11:32.659Z,52.40
2018-03-30T23:14:00.068Z,52.40
2018-03-30T23:16:27.465Z,52.60
2018-03-30T23:18:54.838Z,52.90
2018-03-30T23:21:23.066Z,53.60
2018-03-30T23:23:50.507Z,53.50
2018-03-30T23:26:17.895Z,53.70
2018-03-30T23:28:45.275Z,54.30
2018-03-30T23:31:12.676Z,54.20
2018-03-30T23:33:40.130Z,54.20
2018-03-30T23:36:07.533Z,54.80
2018-03-30T23:38:34.917Z,54.60
2018-03-30T23:41:02.336Z,54.90
2018-03-30T23:43:29.727Z,54.90
2018-03-30T23:45:57.111Z,55.80
2018-03-30T23:48:24.530Z,55.20
2018-03-30T23:50:52.680Z,55.70
2018-03-30T23:53:20.050Z,55.60
2018-03-30T23:55:48.247Z,55.90
2018-03-30T23:58:15.762Z,55.90
